x

Northern Hawaii One - 245nm Ne Of Honolulu Hi (51000) Weather Station

11:50pm - Tue 15th Apr 2014 All times are HST. -10 hours from GMT.

  • Wind
    2mph, 7mph gusts
  • Sea Temp 62°f
  • Air Temp 59°f
  • Sea Pressure 1029.3mb
  • Northern Hawaii One - 245nm Ne Of Honolulu Hi
  • Northern Hawaii One - 245nm Ne Of Honolulu Hi

More Historic Weather Station data

Upgrade to MSW Pro to gain access to the past 30 days of data for over 8000 Wavebouys and Weather Stations around the globe.

Join Pro

Comparision Forecast

View Surf forecast
   
Tue 04/15 11:50pm  -   -   -  2 7 mph 1029.3mb 62f 59f
10:50pm 5ft 11s 7s 2 7 mph 1029.9mb 63f 59f
9:50pm 5ft 11s 7s 2 7 mph 1030.3mb 63f 59f
7:50pm 5ft 11s 7s 4 9 mph 1030.3mb 63f 59f
6:50pm  -   -   -  9 11 mph 1029.8mb 63f 59f
5:50pm 5.5ft 11s 7s 9 11 mph 1029.6mb 63f 58f
4:50pm 6ft 11s 7s 9 11 mph 1029.6mb 63f 59f
3:50pm 5ft 11s 7s 9 13 mph 1029.4mb 63f 58f
2:50pm 6ft 11s 7s 11 13 mph 1029.8mb 63f 59f
1:50pm 6ft 11s 7s 7 9 mph 1030.4mb 63f 59f
12:50pm 6ft 11s 7s 7 9 mph 1030.9mb 63f 59f
11:50am 6ft 12s 7s 4 7 mph 1031.2mb 63f 59f
10:50am 6ft 11s 7s 4 7 mph 1031.5mb 62f 59f
9:50am 6ft 11s 7s 4 7 mph 1031.5mb 62f 59f
8:50am 6ft 11s 7s 7 9 mph 1031.5mb 62f 59f
7:50am 7ft 11s 7s 11 13 mph 1031.2mb 62f 58f
6:50am 6ft 11s 7s 9 13 mph 1031.7mb 61f 58f
5:50am 6.5ft 11s 7s 9 11 mph 1031.5mb 61f 58f
4:50am 7ft 10s 8s 11 16 mph 1031.2mb 61f 58f
3:50am 7ft 11s 7s 11 13 mph 1031mb 61f 58f
2:50am 6.5ft 12s 7s 11 13 mph 1031.5mb 61f 58f
1:50am 6ft 12s 7s 11 18 mph 1031.8mb 61f 58f
12:50am 6ft 12s 7s 11 13 mph 1032.1mb 61f 58f
Mon 04/14 11:50pm 6.5ft 12s 7s 9 13 mph 1032.3mb 61f 58f
10:50pm 7ft 12s 7s 11 13 mph 1032.7mb 61f 58f
9:50pm 6.5ft 12s 7s 13 16 mph 1033.1mb 61f 58f
8:50pm 7ft 13s 7s 13 16 mph 1033.2mb 61f 58f
7:50pm 7ft 12s 7s 16 18 mph 1033.1mb 61f 58f
6:50pm 6.5ft 12s 7s 13 18 mph 1032.9mb 61f 58f
5:50pm 7ft 10s 7s 16 18 mph 1032.4mb 61f 58f
4:50pm 7ft 13s 7s 13 18 mph 1032.1mb 61f 58f
3:50pm 7ft 13s 7s 13 18 mph 1031.8mb 61f 58f
2:50pm 7ft 11s 7s 13 18 mph 1031.9mb 61f 58f
1:50pm 6.5ft 13s 7s 16 18 mph 1032.5mb 61f 58f
12:50pm 7ft 11s 7s 13 18 mph 1033mb 61f 58f
11:50am 7ft 12s 7s 16 18 mph 1033.4mb 62f 58f
10:50am 7.5ft 12s 7s 16 18 mph 1033.6mb 62f 57f
9:50am 7.5ft 12s 7s 16 20 mph 1033.4mb 61f 57f
8:50am 7.5ft 12s 7s 16 20 mph 1033.4mb 61f 57f
7:50am 7.5ft 13s 7s 16 20 mph 1032.9mb 61f 57f
6:50am 8ft 12s 7s 16 18 mph 1032.5mb 60f 57f
5:50am 7.5ft 12s 7s 16 20 mph 1032.1mb 60f 57f
4:50am 7.5ft 13s 7s 13 18 mph 1031.5mb 60f 57f
3:50am 7.5ft 13s 7s 16 20 mph 1031.4mb 60f 57f
2:50am 7ft 13s 7s 16 20 mph 1031.4mb 60f 57f
1:50am 8ft 14s 7s 20 22 mph 1031.4mb 60f 57f
12:50am 8ft 14s 7s 18 20 mph 1031.6mb 60f 57f
Sun 04/13 11:50pm 7ft 14s 6s 18 20 mph 1031.6mb 60f 57f
10:50pm 8ft 14s 7s 18 22 mph 1031.5mb 60f 58f
9:50pm 8ft 14s 7s 18 20 mph 1031.5mb 60f 57f
8:50pm 8ft 14s 7s 18 20 mph 1031.4mb 60f 57f
7:50pm 8ft 14s 7s 18 22 mph 1031.2mb 60f 58f
6:50pm 9ft 14s 7s 20 22 mph 1030.8mb 60f 58f
5:50pm 8.5ft 14s 7s 20 25 mph 1030.4mb 61f 58f
4:50pm 8ft 14s 7s 18 22 mph 1030mb 61f 58f
3:50pm 9ft 14s 7s 18 20 mph 1029.5mb 61f 58f
2:50pm 8.5ft 14s 7s 16 20 mph 1029.3mb 61f 58f
1:50pm 9ft 14s 7s 16 20 mph 1029.4mb 61f 58f
12:50pm 9ft 14s 7s 18 20 mph 1029.5mb 61f 58f
11:50am 8.5ft 14s 7s 18 22 mph 1029.5mb 60f 58f
10:50am 9ft 14s 7s 20 22 mph 1029.3mb 60f 58f
9:50am 9.5ft 14s 7s 18 22 mph 1029.4mb 60f 58f
8:50am 9ft 14s 7s 20 22 mph 1029.1mb 60f 58f
7:50am 8ft 14s 7s 20 22 mph 1028.4mb 60f 57f
6:50am 8ft 15s 8s 18 20 mph 1027.9mb 60f 58f
5:50am 7.5ft 15s 8s 18 22 mph 1027.1mb 60f 58f
4:50am 7ft 15s 7s 18 20 mph 1026.4mb 60f 58f
3:50am 6ft 14s 8s 18 22 mph 1025.6mb 60f 57f
2:50am 7ft 15s 10s 20 22 mph 1025mb 60f 58f
1:50am 7.5ft 15s 10s  -  7 mph 1024.9mb 60f 60f
12:50am 7ft 15s 10s  -  4 mph 1024.9mb 60f 60f
Sat 04/12 11:50pm 7ft 16s 10s  -  2 mph 1025.1mb 60f 60f
10:50pm 7ft 15s 10s  -  2 mph 1025.2mb 60f 60f
9:50pm 7ft 16s 9s  -  2 mph 1024.8mb 60f 60f
8:50pm 7ft 16s 9s  -  2 mph 1024.8mb 61f 60f
7:50pm 7ft 16s 10s 4 7 mph 1024.6mb 61f 60f
6:50pm 7.5ft 16s 10s 4 9 mph 1024.1mb 61f 60f
5:50pm  -   -   -  7 9 mph 1023.6mb 61f 60f
4:50pm 8ft 16s 10s 7 9 mph 1023.4mb 61f 59f
3:50pm 6ft 16s 9s 7 9 mph 1023.2mb 61f 60f
2:50pm 6.5ft 16s 9s 4 7 mph 1023.1mb 61f 60f
1:50pm 6.5ft 16s 9s 9 11 mph 1023.1mb 61f 59f
12:50pm 6ft 16s 8s 9 11 mph 1023.4mb 60f 59f
11:50am 6.5ft 16s 8s 11 13 mph 1023.4mb 60f 59f